createdAt,value
2019-05-02T00:00:10.259Z,18.27
2019-05-02T00:03:19.088Z,18.30
2019-05-02T00:06:25.529Z,18.30
2019-05-02T00:09:33.484Z,18.44
2019-05-02T00:12:39.380Z,18.38
2019-05-02T00:15:45.268Z,18.65
2019-05-02T00:18:50.986Z,18.41
2019-05-02T00:21:56.817Z,18.24
2019-05-02T00:25:02.640Z,18.24
2019-05-02T00:28:12.393Z,18.18
2019-05-02T00:31:18.895Z,18.33
2019-05-02T00:34:24.552Z,18.37
2019-05-02T00:37:30.279Z,18.10
2019-05-02T00:40:36.123Z,18.24
2019-05-02T00:43:41.998Z,18.07
2019-05-02T00:46:48.387Z,17.83
2019-05-02T00:49:54.312Z,17.83
2019-05-02T00:53:00.001Z,17.72
2019-05-02T00:56:09.011Z,17.66
2019-05-02T00:59:13.380Z,18.00
2019-05-02T01:02:35.828Z,17.86
2019-05-02T01:05:41.487Z,17.88
2019-05-02T01:08:47.203Z,17.88
2019-05-02T01:11:56.720Z,17.84
2019-05-02T01:15:08.429Z,17.91
2019-05-02T01:18:11.367Z,17.72
2019-05-02T01:21:17.168Z,17.73
2019-05-02T01:24:22.991Z,17.74
2019-05-02T01:27:41.181Z,17.71
2019-05-02T01:31:13.131Z,17.76
2019-05-02T01:34:33.023Z,17.82
2019-05-02T01:38:16.142Z,18.01
2019-05-02T01:41:23.914Z,17.80
2019-05-02T01:44:31.196Z,17.82
2019-05-02T01:47:36.791Z,17.72
2019-05-02T01:50:42.536Z,17.65
2019-05-02T01:53:48.217Z,17.96
2019-05-02T01:56:54.157Z,17.81
2019-05-02T02:00:04.298Z,17.72
2019-05-02T02:03:09.032Z,17.53
2019-05-02T02:06:16.328Z,17.54
2019-05-02T02:09:22.037Z,17.34
2019-05-02T02:12:27.875Z,17.63
2019-05-02T02:15:33.625Z,17.46
2019-05-02T02:18:45.063Z,17.16
2019-05-02T02:22:09.716Z,17.36
2019-05-02T02:25:36.277Z,17.32
2019-05-02T02:28:40.221Z,17.42
2019-05-02T02:31:48.207Z,17.55
2019-05-02T02:34:53.351Z,17.39
2019-05-02T02:37:59.091Z,17.48
2019-05-02T02:41:06.496Z,17.44
2019-05-02T02:44:20.372Z,17.27
2019-05-02T02:47:26.410Z,17.28
2019-05-02T02:50:36.605Z,17.26
2019-05-02T02:53:39.655Z,17.25
2019-05-02T02:56:45.403Z,17.11
2019-05-02T02:59:51.085Z,16.72
2019-05-02T03:02:56.844Z,17.15
2019-05-02T03:06:05.471Z,17.01
2019-05-02T03:09:10.196Z,16.93
2019-05-02T03:12:41.631Z,16.78
2019-05-02T03:15:51.762Z,16.87
2019-05-02T03:18:57.627Z,16.73
2019-05-02T03:22:04.164Z,16.91
2019-05-02T03:25:11.509Z,16.76
2019-05-02T03:28:21.004Z,16.76
2019-05-02T03:31:30.222Z,16.73
2019-05-02T03:34:47.849Z,16.43
2019-05-02T03:37:44.741Z,16.59
2019-05-02T03:40:50.156Z,16.52
2019-05-02T03:44:10.418Z,16.48
2019-05-02T03:47:04.943Z,16.49
2019-05-02T03:50:11.087Z,16.75
2019-05-02T03:53:17.567Z,16.77
2019-05-02T03:56:24.151Z,16.92
2019-05-02T03:59:39.107Z,16.94
2019-05-02T04:02:40.597Z,16.89
2019-05-02T04:05:47.050Z,16.87
2019-05-02T04:08:58.874Z,16.76
2019-05-02T04:12:00.607Z,16.83
2019-05-02T04:15:09.556Z,17.00
2019-05-02T04:18:15.648Z,16.73
2019-05-02T04:21:25.922Z,16.83
2019-05-02T04:24:30.261Z,16.55
2019-05-02T04:27:36.286Z,16.44
2019-05-02T04:30:45.183Z,16.51
2019-05-02T04:33:49.403Z,16.56
2019-05-02T04:37:00.930Z,16.68
2019-05-02T04:40:03.465Z,16.48
2019-05-02T04:43:11.429Z,16.69
2019-05-02T04:46:25.562Z,16.94
2019-05-02T04:49:32.694Z,17.02
2019-05-02T04:52:38.425Z,16.91
2019-05-02T04:55:39.843Z,16.85
2019-05-02T04:58:45.524Z,16.82
2019-05-02T05:01:57.386Z,17.08
2019-05-02T05:04:58.749Z,17.24
2019-05-02T05:08:07.741Z,17.24
2019-05-02T05:11:13.874Z,17.27
2019-05-02T05:14:20.623Z,17.44
2019-05-02T05:17:32.724Z,17.49
2019-05-02T05:20:33.825Z,17.37
2019-05-02T05:24:07.807Z,17.30
2019-05-02T05:27:18.846Z,17.42
2019-05-02T05:30:21.076Z,17.30
2019-05-02T05:33:28.358Z,17.18
2019-05-02T05:36:34.257Z,17.16
2019-05-02T05:39:43.211Z,17.00
2019-05-02T05:42:48.142Z,17.21
2019-05-02T05:46:06.078Z,16.89
2019-05-02T05:49:01.382Z,17.26
2019-05-02T05:52:08.023Z,17.15
2019-05-02T05:55:20.483Z,17.24
2019-05-02T05:58:21.658Z,17.09
2019-05-02T06:01:34.052Z,17.26
2019-05-02T06:04:34.760Z,17.10
2019-05-02T06:07:43.969Z,17.26
2019-05-02T06:10:47.887Z,17.56
2019-05-02T06:13:53.670Z,17.48
2019-05-02T06:16:59.742Z,17.20
2019-05-02T06:20:06.475Z,17.50
2019-05-02T06:23:12.223Z,17.17
2019-05-02T06:26:19.251Z,17.40
2019-05-02T06:29:25.241Z,17.63
2019-05-02T06:32:33.692Z,17.50
2019-05-02T06:35:39.576Z,17.74
2019-05-02T06:38:46.405Z,17.56
2019-05-02T06:41:57.518Z,17.93
2019-05-02T06:45:01.049Z,18.21
2019-05-02T06:48:07.291Z,17.95
2019-05-02T06:51:19.593Z,18.09
2019-05-02T06:54:22.828Z,18.29
2019-05-02T06:57:28.066Z,18.41
2019-05-02T07:00:38.433Z,18.81
2019-05-02T07:03:46.148Z,19.00
2019-05-02T07:06:58.259Z,19.11
2019-05-02T07:09:56.545Z,18.91
2019-05-02T07:13:10.653Z,18.77
2019-05-02T07:16:37.790Z,18.90
2019-05-02T07:19:39.261Z,18.90
2019-05-02T07:22:45.712Z,19.02
2019-05-02T07:25:52.030Z,19.15
2019-05-02T07:28:57.860Z,19.29
2019-05-02T07:32:03.679Z,19.36
2019-05-02T07:35:10.622Z,19.71
2019-05-02T07:38:20.234Z,19.41
2019-05-02T07:41:24.176Z,19.67
2019-05-02T07:44:32.743Z,19.80
2019-05-02T07:47:40.162Z,19.83
2019-05-02T07:50:47.941Z,20.08
2019-05-02T07:53:55.564Z,20.23
2019-05-02T07:57:02.457Z,20.33
2019-05-02T08:00:11.222Z,21.09
2019-05-02T08:03:16.978Z,21.70
2019-05-02T08:06:35.035Z,22.36
2019-05-02T08:09:33.779Z,22.68
2019-05-02T08:12:39.575Z,22.98
2019-05-02T08:15:50.611Z,23.08
2019-05-02T08:18:53.949Z,23.28
2019-05-02T08:22:04.743Z,23.35
2019-05-02T08:25:10.436Z,23.52
2019-05-02T08:28:27.603Z,23.90
2019-05-02T08:31:33.296Z,23.69
2019-05-02T08:34:46.220Z,23.63
2019-05-02T08:37:55.832Z,24.00
2019-05-02T08:41:00.386Z,24.34
2019-05-02T08:44:06.208Z,24.10
2019-05-02T08:47:18.774Z,24.82
2019-05-02T08:50:19.638Z,24.59
2019-05-02T08:53:25.326Z,24.82
2019-05-02T08:56:31.104Z,25.35
2019-05-02T08:59:36.759Z,25.09
2019-05-02T09:02:42.489Z,25.43
2019-05-02T09:05:48.143Z,25.11
2019-05-02T09:08:53.870Z,24.97
2019-05-02T09:12:09.592Z,25.27
2019-05-02T09:15:07.730Z,25.57
2019-05-02T09:18:13.403Z,25.32
2019-05-02T09:21:19.306Z,25.89
2019-05-02T09:24:25.328Z,25.49
2019-05-02T09:27:31.803Z,25.87
2019-05-02T09:30:37.665Z,25.79
2019-05-02T09:33:46.837Z,25.88
2019-05-02T09:36:53.035Z,25.70
2019-05-02T09:39:58.493Z,25.84
2019-05-02T09:43:04.807Z,25.54
2019-05-02T09:46:12.929Z,25.85
2019-05-02T09:49:18.075Z,25.96
2019-05-02T09:52:23.752Z,25.73
2019-05-02T09:55:31.644Z,25.60
2019-05-02T09:58:41.904Z,25.99
2019-05-02T10:01:47.236Z,26.24
2019-05-02T10:04:53.179Z,25.54
2019-05-02T10:08:03.121Z,25.63
2019-05-02T10:11:06.905Z,25.79
2019-05-02T10:14:15.707Z,25.85
2019-05-02T10:17:23.104Z,26.22
2019-05-02T10:20:34.937Z,26.16
2019-05-02T10:23:59.129Z,25.99
2019-05-02T10:27:08.363Z,26.43
2019-05-02T10:30:21.724Z,26.49
2019-05-02T10:33:32.162Z,26.72
2019-05-02T10:36:35.455Z,26.45
2019-05-02T10:39:42.293Z,26.37
2019-05-02T10:42:48.378Z,26.97
2019-05-02T10:46:01.431Z,26.81
2019-05-02T10:49:32.291Z,26.94
2019-05-02T10:52:38.017Z,27.31
2019-05-02T10:55:43.706Z,27.70
2019-05-02T10:58:49.423Z,27.86
2019-05-02T11:02:22.110Z,27.22
2019-05-02T11:05:27.958Z,27.59
2019-05-02T11:08:36.766Z,27.50
2019-05-02T11:11:42.523Z,27.53
2019-05-02T11:14:56.690Z,27.13
2019-05-02T11:18:02.934Z,27.31
2019-05-02T11:21:08.840Z,27.36
2019-05-02T11:24:14.592Z,27.56
2019-05-02T11:27:22.129Z,27.32
2019-05-02T11:30:27.836Z,28.14
2019-05-02T11:33:33.662Z,27.62
2019-05-02T11:36:41.514Z,27.02
2019-05-02T11:39:52.707Z,25.51
2019-05-02T11:42:57.259Z,26.20
2019-05-02T11:46:07.111Z,26.60
2019-05-02T11:49:12.102Z,26.93
2019-05-02T11:52:17.380Z,26.63
2019-05-02T11:55:24.724Z,26.05
2019-05-02T11:58:32.495Z,26.15
2019-05-02T12:01:39.665Z,25.65
2019-05-02T12:04:47.229Z,25.30
2019-05-02T12:07:53.256Z,25.53
2019-05-02T12:11:01.277Z,25.74
2019-05-02T12:14:06.471Z,25.89
2019-05-02T12:17:12.257Z,25.59
2019-05-02T12:20:18.063Z,25.18
2019-05-02T12:23:23.876Z,24.99
2019-05-02T12:26:29.581Z,24.95
2019-05-02T12:29:35.325Z,25.00
2019-05-02T12:32:53.096Z,25.05
2019-05-02T12:35:58.971Z,25.12
2019-05-02T12:39:06.146Z,24.97
2019-05-02T12:42:13.335Z,25.39
2019-05-02T12:45:19.448Z,25.34
2019-05-02T12:48:25.177Z,24.64
2019-05-02T12:51:32.052Z,25.25
2019-05-02T12:54:38.032Z,24.89
2019-05-02T12:57:43.698Z,25.00
2019-05-02T13:00:49.453Z,25.59
2019-05-02T13:04:05.154Z,26.52
2019-05-02T13:07:12.803Z,26.91
2019-05-02T13:10:28.772Z,26.58
2019-05-02T13:13:34.724Z,26.29
2019-05-02T13:16:42.968Z,26.02
2019-05-02T13:19:56.212Z,26.37
2019-05-02T13:23:17.666Z,26.71
2019-05-02T13:26:27.058Z,26.76
2019-05-02T13:29:34.323Z,26.79
2019-05-02T13:32:42.779Z,26.42
2019-05-02T13:35:52.026Z,26.65
2019-05-02T13:39:12.351Z,27.18
2019-05-02T13:42:18.318Z,26.96
2019-05-02T13:46:02.292Z,26.92
2019-05-02T13:49:09.620Z,27.07
2019-05-02T13:52:15.779Z,26.78
2019-05-02T13:55:26.052Z,26.51
2019-05-02T13:58:33.211Z,26.52
2019-05-02T14:01:39.670Z,26.02
2019-05-02T14:04:46.014Z,25.81
2019-05-02T14:07:57.100Z,25.51
2019-05-02T14:11:28.708Z,25.27
2019-05-02T14:14:35.989Z,25.30
2019-05-02T14:17:43.703Z,26.09
2019-05-02T14:20:49.892Z,26.64
2019-05-02T14:23:55.999Z,26.51
2019-05-02T14:27:02.772Z,26.83
2019-05-02T14:30:09.648Z,26.73
2019-05-02T14:33:19.728Z,26.94
2019-05-02T14:36:25.594Z,26.97
2019-05-02T14:39:32.521Z,27.21
2019-05-02T14:42:38.559Z,26.89
2019-05-02T14:45:44.525Z,26.63
2019-05-02T14:48:52.243Z,27.08
2019-05-02T14:52:05.114Z,26.81
2019-05-02T14:55:06.666Z,26.72
2019-05-02T14:58:12.522Z,26.68
2019-05-02T15:01:22.565Z,26.53
2019-05-02T15:04:26.017Z,26.62
2019-05-02T15:07:34.132Z,26.88
2019-05-02T15:10:50.840Z,26.56
2019-05-02T15:13:52.495Z,27.04
2019-05-02T15:16:58.461Z,26.30
2019-05-02T15:20:04.982Z,25.80
2019-05-02T15:23:14.354Z,25.52
2019-05-02T15:26:18.082Z,25.27
2019-05-02T15:29:27.031Z,25.37
2019-05-02T15:32:44.778Z,25.19
2019-05-02T15:35:57.413Z,24.84
2019-05-02T15:42:13.020Z,24.50
2019-05-02T15:45:20.368Z,24.55
2019-05-02T15:48:27.758Z,24.80
2019-05-02T15:51:33.601Z,24.85
2019-05-02T15:54:40.283Z,24.88
2019-05-02T15:57:48.071Z,24.94
2019-05-02T16:01:18.421Z,24.99
2019-05-02T16:04:27.436Z,24.82
2019-05-02T16:07:33.206Z,24.63
2019-05-02T16:10:42.698Z,24.72
2019-05-02T16:13:52.715Z,24.43
2019-05-02T16:17:01.035Z,24.29
2019-05-02T16:20:18.391Z,24.09
2019-05-02T16:23:31.815Z,24.14
2019-05-02T16:26:35.265Z,24.25
2019-05-02T16:29:41.713Z,24.25
2019-05-02T16:32:58.930Z,24.06
2019-05-02T16:36:04.721Z,23.75
2019-05-02T16:39:13.371Z,23.75
2019-05-02T16:42:19.528Z,23.72
2019-05-02T16:45:25.584Z,23.49
2019-05-02T16:48:37.453Z,23.74
2019-05-02T16:51:38.878Z,23.62
2019-05-02T16:54:44.720Z,23.47
2019-05-02T16:57:51.963Z,23.36
2019-05-02T17:00:58.304Z,23.39
2019-05-02T17:04:06.713Z,23.29
2019-05-02T17:07:16.737Z,23.31
2019-05-02T17:10:29.817Z,23.17
2019-05-02T17:13:35.910Z,23.10
2019-05-02T17:16:42.129Z,22.99
2019-05-02T17:19:47.923Z,23.06
2019-05-02T17:23:01.902Z,22.89
2019-05-02T17:26:01.576Z,22.93
2019-05-02T17:29:07.551Z,22.68
2019-05-02T17:32:13.331Z,22.72
2019-05-02T17:35:22.102Z,22.85
2019-05-02T17:38:29.294Z,22.81
2019-05-02T17:41:37.128Z,22.86
2019-05-02T17:44:43.968Z,22.63
2019-05-02T17:47:49.782Z,22.65
2019-05-02T17:51:08.777Z,22.65
2019-05-02T17:54:17.541Z,22.62
2019-05-02T17:57:23.702Z,22.44
2019-05-02T18:00:33.521Z,22.41
2019-05-02T18:03:39.300Z,22.44
2019-05-02T18:06:46.845Z,22.32
2019-05-02T18:09:53.423Z,22.38
2019-05-02T18:13:02.667Z,22.38
2019-05-02T18:16:15.081Z,22.31
2019-05-02T18:19:20.587Z,22.33
2019-05-02T18:22:26.204Z,21.96
2019-05-02T18:25:30.767Z,22.19
2019-05-02T18:28:46.244Z,21.99
2019-05-02T18:31:47.258Z,21.80
2019-05-02T18:34:52.065Z,21.87
2019-05-02T18:37:57.958Z,21.80
2019-05-02T18:41:07.754Z,21.67
2019-05-02T18:44:17.089Z,21.83
2019-05-02T18:47:24.639Z,21.37
2019-05-02T18:50:36.746Z,21.46
2019-05-02T18:53:42.513Z,21.16
2019-05-02T18:56:51.283Z,21.18
2019-05-02T18:59:56.467Z,21.32
2019-05-02T19:03:07.567Z,21.04
2019-05-02T19:06:11.682Z,21.20
2019-05-02T19:09:21.859Z,21.08
2019-05-02T19:12:26.071Z,20.96
2019-05-02T19:15:34.644Z,20.80
2019-05-02T19:18:42.557Z,20.99
2019-05-02T19:21:47.779Z,20.97
2019-05-02T19:24:53.513Z,20.69
2019-05-02T19:28:05.968Z,20.72
2019-05-02T19:31:11.737Z,20.64
2019-05-02T19:34:22.888Z,20.63
2019-05-02T19:37:24.966Z,20.50
2019-05-02T19:40:31.805Z,20.70
2019-05-02T19:43:40.246Z,20.65
2019-05-02T19:46:47.606Z,20.58
2019-05-02T19:49:54.420Z,20.51
2019-05-02T19:53:04.098Z,20.42
2019-05-02T19:56:08.617Z,20.58
2019-05-02T19:59:16.828Z,20.26
2019-05-02T20:02:23.769Z,20.23
2019-05-02T20:05:29.787Z,20.16
2019-05-02T20:08:35.477Z,20.04
2019-05-02T20:11:42.540Z,20.22
2019-05-02T20:14:48.894Z,20.15
2019-05-02T20:18:00.442Z,20.17
2019-05-02T20:21:23.426Z,20.13
2019-05-02T20:24:22.750Z,19.87
2019-05-02T20:27:28.936Z,19.98
2019-05-02T20:30:34.839Z,19.90
2019-05-02T20:33:40.642Z,19.88
2019-05-02T20:36:46.573Z,19.54
2019-05-02T20:39:52.395Z,19.38
2019-05-02T20:42:58.211Z,19.67
2019-05-02T20:46:04.198Z,19.73
2019-05-02T20:49:10.305Z,19.71
2019-05-02T20:52:16.064Z,19.50
2019-05-02T20:55:21.975Z,19.52
2019-05-02T20:58:27.665Z,19.60
2019-05-02T21:01:33.381Z,19.55
2019-05-02T21:04:42.327Z,19.55
2019-05-02T21:08:05.440Z,19.60
2019-05-02T21:11:12.422Z,19.24
2019-05-02T21:14:18.373Z,19.56
2019-05-02T21:17:24.253Z,19.67
2019-05-02T21:20:37.537Z,19.57
2019-05-02T21:23:47.334Z,19.55
2019-05-02T21:26:52.509Z,19.63
2019-05-02T21:30:02.370Z,19.66
2019-05-02T21:33:22.386Z,19.62
2019-05-02T21:36:28.129Z,19.66
2019-05-02T21:39:33.957Z,19.59
2019-05-02T21:42:39.742Z,19.42
2019-05-02T21:45:52.796Z,19.50
2019-05-02T21:48:58.607Z,19.49
2019-05-02T21:52:16.044Z,19.40
2019-05-02T21:55:39.349Z,19.50
2019-05-02T21:59:03.043Z,19.48
2019-05-02T22:02:15.539Z,19.29
2019-05-02T22:05:28.968Z,19.36
2019-05-02T22:08:34.763Z,19.11
2019-05-02T22:11:42.891Z,19.04
2019-05-02T22:14:48.911Z,19.15
2019-05-02T22:17:54.728Z,18.65
2019-05-02T22:21:01.694Z,18.99
2019-05-02T22:24:11.538Z,19.07
2019-05-02T22:27:15.116Z,18.97
2019-05-02T22:30:21.959Z,18.75
2019-05-02T22:33:27.935Z,18.84
2019-05-02T22:36:33.742Z,18.91
2019-05-02T22:39:53.614Z,18.82
2019-05-02T22:42:59.299Z,18.38
2019-05-02T22:46:06.965Z,18.09
2019-05-02T22:49:14.535Z,18.09
2019-05-02T22:52:21.830Z,18.35
2019-05-02T22:55:27.675Z,18.30
2019-05-02T22:58:33.412Z,18.30
2019-05-02T23:01:39.205Z,18.44
2019-05-02T23:04:44.971Z,18.55
2019-05-02T23:07:52.281Z,18.48
2019-05-02T23:10:58.169Z,17.98
2019-05-02T23:14:03.999Z,18.12
2019-05-02T23:17:09.698Z,18.31
2019-05-02T23:20:15.653Z,18.28
2019-05-02T23:23:21.581Z,18.29
2019-05-02T23:26:56.690Z,18.23
2019-05-02T23:30:03.005Z,18.16
2019-05-02T23:33:09.201Z,18.55
2019-05-02T23:36:14.966Z,18.30
2019-05-02T23:39:20.823Z,18.25
2019-05-02T23:42:26.513Z,18.36
2019-05-02T23:45:32.327Z,18.23
2019-05-02T23:48:38.108Z,18.28
2019-05-02T23:51:43.885Z,18.08
2019-05-02T23:54:52.323Z,17.99
2019-05-02T23:57:57.063Z,17.99
